createdAt,value
2018-07-08T00:00:35.009Z,91.93
2018-07-08T00:03:02.193Z,91.74
2018-07-08T00:05:29.240Z,91.44
2018-07-08T00:07:56.366Z,91.87
2018-07-08T00:10:23.438Z,92.36
2018-07-08T00:12:50.503Z,92.18
2018-07-08T00:15:17.831Z,92.60
2018-07-08T00:17:44.873Z,93.32
2018-07-08T00:20:12.849Z,92.49
2018-07-08T00:22:39.880Z,92.70
2018-07-08T00:25:07.134Z,92.15
2018-07-08T00:27:35.120Z,92.09
2018-07-08T00:30:02.207Z,92.51
2018-07-08T00:32:29.200Z,92.75
2018-07-08T00:34:56.215Z,93.33
2018-07-08T00:37:23.523Z,93.64
2018-07-08T00:39:50.807Z,93.54
2018-07-08T00:42:18.132Z,93.52
2018-07-08T00:44:45.244Z,93.63
2018-07-08T00:47:12.330Z,93.49
2018-07-08T00:49:39.594Z,93.62
2018-07-08T00:52:06.629Z,94.15
2018-07-08T00:54:33.722Z,94.14
2018-07-08T00:57:00.760Z,94.07
2018-07-08T00:59:27.795Z,93.93
2018-07-08T01:01:54.892Z,94.17
2018-07-08T01:04:21.894Z,94.44
2018-07-08T01:06:48.961Z,94.54
2018-07-08T01:09:16.970Z,94.81
2018-07-08T01:11:43.980Z,94.59
2018-07-08T01:14:10.988Z,94.71
2018-07-08T01:16:38.012Z,94.56
2018-07-08T01:19:05.037Z,94.78
2018-07-08T01:21:32.129Z,94.88
2018-07-08T01:23:59.165Z,95.10
2018-07-08T01:26:26.490Z,95.20
2018-07-08T01:28:53.510Z,94.98
2018-07-08T01:31:20.598Z,94.73
2018-07-08T01:33:47.697Z,95.14
2018-07-08T01:36:14.777Z,94.66
2018-07-08T01:38:41.821Z,94.83
2018-07-08T01:41:08.923Z,95.41
2018-07-08T01:43:35.923Z,95.55
2018-07-08T01:46:04.005Z,95.20
2018-07-08T01:48:31.084Z,95.17
2018-07-08T01:50:58.202Z,95.83
2018-07-08T01:53:25.691Z,95.43
2018-07-08T01:55:54.050Z,95.24
2018-07-08T01:58:21.128Z,94.92
2018-07-08T02:00:48.258Z,94.50
2018-07-08T02:03:15.371Z,94.75
2018-07-08T02:05:42.385Z,95.37
2018-07-08T02:08:09.462Z,95.51
2018-07-08T02:10:36.819Z,95.94
2018-07-08T02:13:03.883Z,95.80
2018-07-08T02:15:31.073Z,95.01
2018-07-08T02:17:58.454Z,95.49
2018-07-08T02:20:25.475Z,95.77
2018-07-08T02:22:52.826Z,95.21
2018-07-08T02:25:19.869Z,95.04
2018-07-08T02:27:46.883Z,95.64
2018-07-08T02:30:13.923Z,95.17
2018-07-08T02:32:40.966Z,94.84
2018-07-08T02:35:08.133Z,94.96
2018-07-08T02:37:35.150Z,94.65
2018-07-08T02:40:02.188Z,94.04
2018-07-08T02:42:29.222Z,94.74
2018-07-08T02:44:56.276Z,93.75
2018-07-08T02:47:23.804Z,94.43
2018-07-08T02:49:51.104Z,94.85
2018-07-08T02:52:18.883Z,94.25
2018-07-08T02:54:45.961Z,94.12
2018-07-08T02:57:13.104Z,94.43
2018-07-08T02:59:40.231Z,93.50
2018-07-08T03:02:07.250Z,94.44
2018-07-08T03:04:34.254Z,95.22
2018-07-08T03:07:02.121Z,94.52
2018-07-08T03:09:29.117Z,95.32
2018-07-08T03:11:56.131Z,94.86
2018-07-08T03:14:23.330Z,94.75
2018-07-08T03:16:50.364Z,94.26
2018-07-08T03:21:51.551Z,94.64
2018-07-08T03:24:18.783Z,95.42
2018-07-08T03:26:45.794Z,95.45
2018-07-08T03:29:14.623Z,95.29
2018-07-08T03:31:41.699Z,94.72
2018-07-08T03:34:08.785Z,94.60
2018-07-08T03:36:35.846Z,95.05
2018-07-08T03:39:04.173Z,95.31
2018-07-08T03:41:31.173Z,95.62
2018-07-08T03:43:58.168Z,95.76
2018-07-08T03:46:25.248Z,95.05
2018-07-08T03:48:52.289Z,95.39
2018-07-08T03:51:19.402Z,95.45
2018-07-08T03:53:46.410Z,96.03
2018-07-08T03:56:13.541Z,95.74
2018-07-08T03:58:40.544Z,95.71
2018-07-08T04:01:07.560Z,95.87
2018-07-08T04:03:34.766Z,95.70
2018-07-08T04:06:01.958Z,95.75
2018-07-08T04:08:29.182Z,95.60
2018-07-08T04:10:56.181Z,95.42
2018-07-08T04:13:23.187Z,95.29
2018-07-08T04:15:50.218Z,95.83
2018-07-08T04:18:17.237Z,95.62
2018-07-08T04:20:44.356Z,95.48
2018-07-08T04:23:11.385Z,94.71
2018-07-08T04:25:38.377Z,95.31
2018-07-08T04:28:05.402Z,95.24
2018-07-08T04:30:32.457Z,95.29
2018-07-08T04:32:59.904Z,94.19
2018-07-08T04:35:26.977Z,94.60
2018-07-08T04:37:54.022Z,92.59
2018-07-08T04:40:21.098Z,92.44
2018-07-08T04:42:48.168Z,91.33
2018-07-08T04:45:15.193Z,91.18
2018-07-08T04:47:42.324Z,90.69
2018-07-08T04:50:09.354Z,90.04
2018-07-08T04:52:36.386Z,90.39
2018-07-08T04:55:03.562Z,90.51
2018-07-08T04:57:30.702Z,90.49
2018-07-08T04:59:57.718Z,90.33
2018-07-08T05:02:24.720Z,90.38
2018-07-08T05:04:51.814Z,89.91
2018-07-08T05:07:18.941Z,89.77
2018-07-08T05:09:45.953Z,89.92
2018-07-08T05:12:12.960Z,89.35
2018-07-08T05:14:40.061Z,89.20
2018-07-08T05:17:08.169Z,88.62
2018-07-08T05:19:35.178Z,88.58
2018-07-08T05:22:02.269Z,88.69
2018-07-08T05:24:29.318Z,88.70
2018-07-08T05:26:56.322Z,88.80
2018-07-08T05:29:23.354Z,88.56
2018-07-08T05:31:50.396Z,88.08
2018-07-08T05:34:17.477Z,87.64
2018-07-08T05:36:44.575Z,87.31
2018-07-08T05:39:11.610Z,86.90
2018-07-08T05:41:38.693Z,86.43
2018-07-08T05:44:06.721Z,86.84
2018-07-08T05:46:33.720Z,87.06
2018-07-08T05:49:00.749Z,86.36
2018-07-08T05:51:27.765Z,85.54
2018-07-08T05:53:54.914Z,85.67
2018-07-08T05:56:22.030Z,85.45
2018-07-08T05:58:49.029Z,84.84
2018-07-08T06:01:16.213Z,84.88
2018-07-08T06:03:43.277Z,83.46
2018-07-08T06:06:10.394Z,83.10
2018-07-08T06:08:37.421Z,83.50
2018-07-08T06:11:04.752Z,83.36
2018-07-08T06:13:31.782Z,83.71
2018-07-08T06:15:58.892Z,83.63
2018-07-08T06:18:26.019Z,83.16
2018-07-08T06:20:53.147Z,82.53
2018-07-08T06:23:21.197Z,82.12
2018-07-08T06:25:49.092Z,81.54
2018-07-08T06:28:16.285Z,81.50
2018-07-08T06:30:43.463Z,81.45
2018-07-08T06:33:10.488Z,81.22
2018-07-08T06:35:37.705Z,81.48
2018-07-08T06:38:04.788Z,81.24
2018-07-08T06:40:31.857Z,80.72
2018-07-08T06:42:58.915Z,80.82
2018-07-08T06:45:33.000Z,80.52
2018-07-08T06:48:00.037Z,80.65
2018-07-08T06:50:27.423Z,80.22
2018-07-08T06:52:54.415Z,79.75
2018-07-08T06:55:21.431Z,79.67
2018-07-08T06:57:48.484Z,78.55
2018-07-08T07:00:15.553Z,78.94
2018-07-08T07:02:42.627Z,78.53
2018-07-08T07:05:09.645Z,77.56
2018-07-08T07:07:36.744Z,77.71
2018-07-08T07:10:03.863Z,77.98
2018-07-08T07:12:30.968Z,77.24
2018-07-08T07:14:57.977Z,76.51
2018-07-08T07:17:25.131Z,76.30
2018-07-08T07:19:52.604Z,76.74
2018-07-08T07:22:19.664Z,75.66
2018-07-08T07:24:46.766Z,75.18
2018-07-08T07:27:13.905Z,74.52
2018-07-08T07:29:40.976Z,74.46
2018-07-08T07:32:08.018Z,74.11
2018-07-08T07:34:35.043Z,74.25
2018-07-08T07:37:02.153Z,73.91
2018-07-08T07:39:29.158Z,73.50
2018-07-08T07:41:56.321Z,73.14
2018-07-08T07:44:23.374Z,73.13
2018-07-08T07:46:50.421Z,72.39
2018-07-08T07:49:17.445Z,72.50
2018-07-08T07:51:44.531Z,71.82
2018-07-08T07:54:11.534Z,72.02
2018-07-08T07:56:38.564Z,71.78
2018-07-08T07:59:05.713Z,72.20
2018-07-08T08:01:32.788Z,71.20
2018-07-08T08:03:59.822Z,72.89
2018-07-08T08:06:26.846Z,70.17
2018-07-08T08:08:54.118Z,71.00
2018-07-08T08:11:21.237Z,70.39
2018-07-08T08:13:58.693Z,69.39
2018-07-08T08:16:25.855Z,71.13
2018-07-08T08:18:52.867Z,70.17
2018-07-08T08:21:20.750Z,69.90
2018-07-08T08:23:47.784Z,68.94
2018-07-08T08:26:14.900Z,68.77
2018-07-08T08:28:41.989Z,69.32
2018-07-08T08:31:09.170Z,68.17
2018-07-08T08:33:37.641Z,67.85
2018-07-08T08:36:04.673Z,66.89
2018-07-08T08:38:31.682Z,67.18
2018-07-08T08:40:58.784Z,66.92
2018-07-08T08:43:25.817Z,66.85
2018-07-08T08:45:52.857Z,67.36
2018-07-08T08:48:19.946Z,66.12
2018-07-08T08:50:46.942Z,66.57
2018-07-08T08:53:14.092Z,65.12
2018-07-08T08:55:41.225Z,66.10
2018-07-08T08:58:09.294Z,66.06
2018-07-08T09:00:36.473Z,66.01
2018-07-08T09:03:03.709Z,65.21
2018-07-08T09:05:30.737Z,65.24
2018-07-08T09:07:57.755Z,63.69
2018-07-08T09:10:24.746Z,64.12
2018-07-08T09:12:51.813Z,64.05
2018-07-08T09:15:18.829Z,63.12
2018-07-08T09:17:45.950Z,64.62
2018-07-08T09:20:14.140Z,63.90
2018-07-08T09:22:41.148Z,64.08
2018-07-08T09:25:08.318Z,63.97
2018-07-08T09:27:35.357Z,62.40
2018-07-08T09:30:02.404Z,62.96
2018-07-08T09:32:29.409Z,62.21
2018-07-08T09:34:56.573Z,62.89
2018-07-08T09:37:23.606Z,62.78
2018-07-08T09:39:50.656Z,62.05
2018-07-08T09:42:17.654Z,63.04
2018-07-08T09:44:44.677Z,62.52
2018-07-08T09:47:11.698Z,62.10
2018-07-08T09:49:38.800Z,61.54
2018-07-08T09:52:12.656Z,61.62
2018-07-08T09:54:39.718Z,61.09
2018-07-08T09:57:06.825Z,61.06
2018-07-08T09:59:33.836Z,61.78
2018-07-08T10:02:00.849Z,61.12
2018-07-08T10:04:28.229Z,59.59
2018-07-08T10:06:55.270Z,60.74
2018-07-08T10:09:23.450Z,60.90
2018-07-08T10:11:50.522Z,59.89
2018-07-08T10:14:20.000Z,58.98
2018-07-08T10:16:47.122Z,60.00
2018-07-08T10:19:15.627Z,59.80
2018-07-08T10:21:42.694Z,58.47
2018-07-08T10:24:10.008Z,57.45
2018-07-08T10:26:37.072Z,58.93
2018-07-08T10:29:04.468Z,57.83
2018-07-08T10:31:47.432Z,58.07
2018-07-08T10:34:14.461Z,58.79
2018-07-08T10:36:41.606Z,59.95
2018-07-08T10:39:10.015Z,60.04
2018-07-08T10:41:37.045Z,58.71
2018-07-08T10:44:04.178Z,59.15
2018-07-08T10:46:31.359Z,59.28
2018-07-08T10:48:58.432Z,58.89
2018-07-08T10:51:25.610Z,58.98
2018-07-08T10:53:52.665Z,57.46
2018-07-08T10:56:19.884Z,57.71
2018-07-08T10:58:46.990Z,58.56
2018-07-08T11:01:14.086Z,58.37
2018-07-08T11:03:41.107Z,57.12
2018-07-08T11:06:08.261Z,55.79
2018-07-08T11:08:35.319Z,55.94
2018-07-08T11:11:03.369Z,57.69
2018-07-08T11:13:30.481Z,55.92
2018-07-08T11:15:57.574Z,56.56
2018-07-08T11:18:25.648Z,56.24
2018-07-08T11:20:52.761Z,56.16
2018-07-08T11:23:19.913Z,56.86
2018-07-08T11:25:46.961Z,55.41
2018-07-08T11:28:13.962Z,55.48
2018-07-08T11:30:41.024Z,55.41
2018-07-08T11:33:08.737Z,56.43
2018-07-08T11:35:35.816Z,55.56
2018-07-08T11:38:02.906Z,56.27
2018-07-08T11:40:30.098Z,55.83
2018-07-08T11:42:57.252Z,54.83
2018-07-08T11:45:24.383Z,55.00
2018-07-08T11:47:51.522Z,54.11
2018-07-08T11:50:18.641Z,54.58
2018-07-08T11:52:45.677Z,53.85
2018-07-08T11:55:12.802Z,54.29
2018-07-08T11:57:46.859Z,54.41
2018-07-08T12:00:13.942Z,54.60
2018-07-08T12:02:41.216Z,54.34
2018-07-08T12:05:08.729Z,53.49
2018-07-08T12:07:37.464Z,53.15
2018-07-08T12:10:04.573Z,52.73
2018-07-08T12:12:33.555Z,52.78
2018-07-08T12:15:00.761Z,52.68
2018-07-08T12:17:27.796Z,52.59
2018-07-08T12:19:54.889Z,52.40
2018-07-08T12:22:21.957Z,50.79
2018-07-08T12:24:49.081Z,50.06
2018-07-08T12:27:16.165Z,51.16
2018-07-08T12:29:44.339Z,49.30
2018-07-08T12:32:11.413Z,48.55
2018-07-08T12:34:38.440Z,48.04
2018-07-08T12:37:05.766Z,47.75
2018-07-08T12:39:32.801Z,46.13
2018-07-08T12:41:59.863Z,47.35
2018-07-08T12:44:26.919Z,47.26
2018-07-08T12:46:53.952Z,47.07
2018-07-08T12:49:21.060Z,45.92
2018-07-08T12:51:48.085Z,44.80
2018-07-08T12:54:15.354Z,46.69
2018-07-08T12:56:42.361Z,48.45
2018-07-08T12:59:09.449Z,47.19
2018-07-08T13:01:36.487Z,46.09
2018-07-08T13:04:03.518Z,46.18
2018-07-08T13:06:30.725Z,46.60
2018-07-08T13:08:58.012Z,47.05
2018-07-08T13:11:25.102Z,44.97
2018-07-08T13:13:52.277Z,46.09
2018-07-08T13:16:19.302Z,45.00
2018-07-08T13:18:46.318Z,45.02
2018-07-08T13:21:13.357Z,46.45
2018-07-08T13:23:40.427Z,46.28
2018-07-08T13:26:07.501Z,45.42
2018-07-08T13:28:34.521Z,46.42
2018-07-08T13:31:01.642Z,45.80
2018-07-08T13:33:28.646Z,45.95
2018-07-08T13:35:55.666Z,46.55
2018-07-08T13:38:22.824Z,47.23
2018-07-08T13:40:49.875Z,46.29
2018-07-08T13:43:16.876Z,47.09
2018-07-08T13:45:43.974Z,48.08
2018-07-08T13:48:11.014Z,47.03
2018-07-08T13:50:38.458Z,48.00
2018-07-08T13:53:05.560Z,48.13
2018-07-08T13:55:32.659Z,48.87
2018-07-08T13:58:00.068Z,48.71
2018-07-08T14:00:27.177Z,48.51
2018-07-08T14:02:54.277Z,48.93
2018-07-08T14:05:21.299Z,48.54
2018-07-08T14:07:48.381Z,47.48
2018-07-08T14:10:15.497Z,47.90
2018-07-08T14:12:42.492Z,49.31
2018-07-08T14:15:09.678Z,49.70
2018-07-08T14:17:36.697Z,47.77
2018-07-08T14:20:04.293Z,47.66
2018-07-08T14:22:31.328Z,48.30
2018-07-08T14:24:58.377Z,47.59
2018-07-08T14:27:25.553Z,48.12
2018-07-08T14:29:52.682Z,48.21
2018-07-08T14:32:19.815Z,48.62
2018-07-08T14:34:46.953Z,48.05
2018-07-08T14:37:14.088Z,49.82
2018-07-08T14:39:41.149Z,50.28
2018-07-08T14:42:08.296Z,49.02
2018-07-08T14:44:35.539Z,48.51
2018-07-08T14:47:02.597Z,50.49
2018-07-08T14:49:29.608Z,49.00
2018-07-08T14:51:56.697Z,48.02
2018-07-08T14:54:23.789Z,48.28
2018-07-08T14:56:51.286Z,48.64
2018-07-08T14:59:18.346Z,48.84
2018-07-08T15:01:45.391Z,49.54
2018-07-08T15:04:12.560Z,49.43
2018-07-08T15:06:39.613Z,50.40
2018-07-08T15:09:08.491Z,50.85
2018-07-08T15:11:35.859Z,50.47
2018-07-08T15:14:03.185Z,50.85
2018-07-08T15:16:30.357Z,50.58
2018-07-08T15:18:57.353Z,55.02
2018-07-08T15:21:24.466Z,52.57
2018-07-08T15:23:51.561Z,52.13
2018-07-08T15:26:18.667Z,51.04
2018-07-08T15:28:45.802Z,53.18
2018-07-08T15:31:13.129Z,53.52
2018-07-08T15:33:40.168Z,53.82
2018-07-08T15:36:07.256Z,54.00
2018-07-08T15:38:34.349Z,53.19
2018-07-08T15:41:01.442Z,52.41
2018-07-08T15:43:28.553Z,52.86
2018-07-08T15:45:55.717Z,54.10
2018-07-08T15:48:22.834Z,52.27
2018-07-08T15:50:49.894Z,52.25
2018-07-08T15:53:16.989Z,52.28
2018-07-08T15:55:44.120Z,52.77
2018-07-08T15:58:11.213Z,52.47
2018-07-08T16:00:38.406Z,52.25
2018-07-08T16:03:05.449Z,52.54
2018-07-08T16:05:32.676Z,52.42
2018-07-08T16:07:59.835Z,53.09
2018-07-08T16:10:26.937Z,54.82
2018-07-08T16:12:54.026Z,55.02
2018-07-08T16:15:21.922Z,54.73
2018-07-08T16:17:48.961Z,54.74
2018-07-08T16:20:16.930Z,53.56
2018-07-08T16:22:43.971Z,54.88
2018-07-08T16:25:11.023Z,55.54
2018-07-08T16:27:38.149Z,53.52
2018-07-08T16:30:05.234Z,53.12
2018-07-08T16:32:32.274Z,53.40
2018-07-08T16:34:59.376Z,54.27
2018-07-08T16:38:14.809Z,54.99
2018-07-08T16:40:41.898Z,56.96
2018-07-08T16:43:11.305Z,54.56
2018-07-08T16:45:38.378Z,55.89
2018-07-08T16:48:05.426Z,55.01
2018-07-08T16:50:32.477Z,56.61
2018-07-08T16:52:59.641Z,57.33
2018-07-08T16:55:26.645Z,58.64
2018-07-08T16:57:53.789Z,57.39
2018-07-08T17:00:20.904Z,58.12
2018-07-08T17:02:47.904Z,58.07
2018-07-08T17:05:14.951Z,58.31
2018-07-08T17:07:42.185Z,59.26
2018-07-08T17:10:09.809Z,59.93
2018-07-08T17:12:36.892Z,59.55
2018-07-08T17:15:03.989Z,59.59
2018-07-08T17:17:31.193Z,59.65
2018-07-08T17:19:58.365Z,60.44
2018-07-08T17:22:25.520Z,60.07
2018-07-08T17:24:52.758Z,60.35
2018-07-08T17:27:19.836Z,60.94
2018-07-08T17:29:46.921Z,61.06
2018-07-08T17:32:13.992Z,61.85
2018-07-08T17:34:41.605Z,62.16
2018-07-08T17:37:08.934Z,61.85
2018-07-08T17:39:36.128Z,62.41
2018-07-08T17:42:03.231Z,61.71
2018-07-08T17:44:30.574Z,62.25
2018-07-08T17:46:58.899Z,62.70
2018-07-08T17:49:25.990Z,62.34
2018-07-08T17:51:53.078Z,62.77
2018-07-08T17:54:20.599Z,62.78
2018-07-08T17:56:47.635Z,63.33
2018-07-08T17:59:14.683Z,62.77
2018-07-08T18:01:41.781Z,63.26
2018-07-08T18:04:08.921Z,63.23
2018-07-08T18:06:36.085Z,64.18
2018-07-08T18:09:04.200Z,63.58
2018-07-08T18:11:31.854Z,63.29
2018-07-08T18:13:58.940Z,63.17
2018-07-08T18:16:26.000Z,64.00
2018-07-08T18:18:53.346Z,63.95
2018-07-08T18:21:20.441Z,64.33
2018-07-08T18:23:47.479Z,64.58
2018-07-08T18:26:14.745Z,64.97
2018-07-08T18:28:42.405Z,65.13
2018-07-08T18:31:09.445Z,65.55
2018-07-08T18:33:36.461Z,65.60
2018-07-08T18:36:03.709Z,66.07
2018-07-08T18:38:30.890Z,66.33
2018-07-08T18:40:57.913Z,66.40
2018-07-08T18:43:25.005Z,66.60
2018-07-08T18:45:52.178Z,66.99
2018-07-08T18:48:19.253Z,67.66
2018-07-08T18:50:46.611Z,67.82
2018-07-08T18:53:13.754Z,68.17
2018-07-08T18:55:40.865Z,68.23
2018-07-08T18:58:07.964Z,69.49
2018-07-08T19:00:36.717Z,69.37
2018-07-08T19:03:03.871Z,69.82
2018-07-08T19:05:31.963Z,70.21
2018-07-08T19:07:59.379Z,70.55
2018-07-08T19:10:26.404Z,71.00
2018-07-08T19:12:53.470Z,71.61
2018-07-08T19:15:20.553Z,71.12
2018-07-08T19:17:47.646Z,71.97
2018-07-08T19:20:14.814Z,71.83
2018-07-08T19:22:41.849Z,72.20
2018-07-08T19:25:09.849Z,73.23
2018-07-08T19:27:36.890Z,72.87
2018-07-08T19:30:04.313Z,73.07
2018-07-08T19:32:32.052Z,73.79
2018-07-08T19:34:59.563Z,73.51
2018-07-08T19:37:26.916Z,74.37
2018-07-08T19:39:53.936Z,75.06
2018-07-08T19:42:21.000Z,75.12
2018-07-08T19:44:48.016Z,75.39
2018-07-08T19:47:15.170Z,75.71
2018-07-08T19:49:42.224Z,76.06
2018-07-08T19:52:09.245Z,76.23
2018-07-08T19:54:36.399Z,76.05
2018-07-08T19:58:17.033Z,76.46
2018-07-08T20:00:44.078Z,77.28
2018-07-08T20:03:11.125Z,77.60
2018-07-08T20:05:38.238Z,78.70
2018-07-08T20:08:05.281Z,78.78
2018-07-08T20:10:33.097Z,78.90
2018-07-08T20:13:00.220Z,79.29
2018-07-08T20:15:27.480Z,79.91
2018-07-08T20:17:54.813Z,79.72
2018-07-08T20:20:21.873Z,80.39
2018-07-08T20:22:48.930Z,79.41
2018-07-08T20:25:15.987Z,80.54
2018-07-08T20:27:43.612Z,80.55
2018-07-08T20:30:10.737Z,80.85
2018-07-08T20:32:37.915Z,80.79
2018-07-08T20:35:05.165Z,80.60
2018-07-08T20:37:32.216Z,80.52
2018-07-08T20:39:59.298Z,81.14
2018-07-08T20:42:26.401Z,80.58
2018-07-08T20:44:53.981Z,81.48
2018-07-08T20:47:21.028Z,81.46
2018-07-08T20:49:48.399Z,81.93
2018-07-08T20:52:16.476Z,81.60
2018-07-08T20:54:45.753Z,81.59
2018-07-08T20:57:13.066Z,81.66
2018-07-08T20:59:47.166Z,81.85
2018-07-08T21:02:14.408Z,82.34
2018-07-08T21:04:42.373Z,82.23
2018-07-08T21:07:09.466Z,82.17
2018-07-08T21:09:36.589Z,82.16
2018-07-08T21:12:03.795Z,82.34
2018-07-08T21:14:30.862Z,82.78
2018-07-08T21:17:03.635Z,82.80
2018-07-08T21:19:30.838Z,82.87
2018-07-08T21:21:57.912Z,82.90
2018-07-08T21:24:25.173Z,83.50
2018-07-08T21:26:54.124Z,82.99
2018-07-08T21:29:21.419Z,82.97
2018-07-08T21:31:48.486Z,83.82
2018-07-08T21:34:16.983Z,83.91
2018-07-08T21:36:46.434Z,83.79
2018-07-08T21:39:16.360Z,84.08
2018-07-08T21:41:45.993Z,84.19
2018-07-08T21:44:16.324Z,84.27
2018-07-08T21:46:46.216Z,84.92
2018-07-08T21:49:19.377Z,84.92
2018-07-08T21:51:50.474Z,85.01
2018-07-08T21:54:20.710Z,85.49
2018-07-08T21:56:51.057Z,85.90
2018-07-08T21:59:20.031Z,85.70
2018-07-08T22:02:01.697Z,85.78
2018-07-08T22:04:28.785Z,86.08
2018-07-08T22:07:01.621Z,86.70
2018-07-08T22:09:28.725Z,86.70
2018-07-08T22:11:56.026Z,86.28
2018-07-08T22:14:23.520Z,86.43
2018-07-08T22:16:50.695Z,86.74
2018-07-08T22:19:17.703Z,87.51
2018-07-08T22:21:44.876Z,87.61
2018-07-08T22:24:12.038Z,87.12
2018-07-08T22:26:39.065Z,87.78
2018-07-08T22:29:06.249Z,88.46
2018-07-08T22:31:33.425Z,88.89
2018-07-08T22:34:00.515Z,88.77
2018-07-08T22:36:27.558Z,88.67
2018-07-08T22:38:54.640Z,89.75
2018-07-08T22:41:21.736Z,90.27
2018-07-08T22:43:48.777Z,89.29
2018-07-08T22:46:16.113Z,89.22
2018-07-08T22:48:43.313Z,89.94
2018-07-08T22:51:10.326Z,90.11
2018-07-08T22:53:37.386Z,90.15
2018-07-08T22:56:04.441Z,90.51
2018-07-08T22:58:31.614Z,91.12
2018-07-08T23:01:10.173Z,91.54
2018-07-08T23:03:46.148Z,91.27
2018-07-08T23:06:13.384Z,91.77
2018-07-08T23:08:40.823Z,92.09
2018-07-08T23:11:08.209Z,91.85
2018-07-08T23:13:35.673Z,91.77
2018-07-08T23:16:02.798Z,91.61
2018-07-08T23:18:29.817Z,91.91
2018-07-08T23:20:56.913Z,92.18
2018-07-08T23:23:23.941Z,91.94
2018-07-08T23:25:51.055Z,92.67
2018-07-08T23:28:18.276Z,92.65
2018-07-08T23:30:45.330Z,92.94
2018-07-08T23:33:13.049Z,93.46
2018-07-08T23:35:40.062Z,93.43
2018-07-08T23:38:10.165Z,92.86
2018-07-08T23:40:37.211Z,92.93
2018-07-08T23:43:04.505Z,93.29
2018-07-08T23:45:31.610Z,93.32
2018-07-08T23:47:59.626Z,92.69
2018-07-08T23:50:26.741Z,92.64
2018-07-08T23:52:53.770Z,93.37
2018-07-08T23:55:20.788Z,93.61
2018-07-08T23:57:47.959Z,93.84
